createdAt,value
2017-10-17T00:00:55.782Z,11.73
2017-10-17T00:03:22.074Z,12.23
2017-10-17T00:05:48.397Z,12.17
2017-10-17T00:08:15.402Z,12.40
2017-10-17T00:10:41.889Z,13.97
2017-10-17T00:13:08.925Z,12.07
2017-10-17T00:15:35.974Z,11.80
2017-10-17T00:18:03.085Z,12.50
2017-10-17T00:20:29.374Z,15.33
2017-10-17T00:22:55.862Z,11.80
2017-10-17T00:25:22.163Z,11.37
2017-10-17T00:27:48.485Z,12.27
2017-10-17T00:30:18.698Z,11.27
2017-10-17T00:32:44.950Z,11.40
2017-10-17T00:35:29.216Z,11.87
2017-10-17T00:37:56.306Z,13.23
2017-10-17T00:40:23.353Z,11.90
2017-10-17T00:42:50.375Z,14.67
2017-10-17T00:45:16.629Z,10.70
2017-10-17T00:47:43.678Z,12.53
2017-10-17T00:50:10.736Z,11.43
2017-10-17T00:52:37.032Z,16.43
2017-10-17T00:55:04.081Z,13.60
2017-10-17T00:57:31.175Z,12.30
2017-10-17T00:59:57.429Z,12.40
2017-10-17T01:02:23.720Z,11.47
2017-10-17T01:04:50.009Z,11.83
2017-10-17T01:07:16.313Z,23.73
2017-10-17T01:09:42.891Z,10.87
2017-10-17T01:12:09.907Z,16.97
2017-10-17T01:14:36.202Z,12.30
2017-10-17T01:17:02.517Z,11.40
2017-10-17T01:19:28.784Z,12.40
2017-10-17T01:21:55.110Z,11.70
2017-10-17T01:24:21.435Z,11.57
2017-10-17T01:26:47.701Z,11.50
2017-10-17T01:29:13.995Z,12.47
2017-10-17T01:31:45.603Z,12.00
2017-10-17T01:34:12.606Z,12.77
2017-10-17T01:36:40.737Z,14.03
2017-10-17T01:39:07.001Z,12.80
2017-10-17T01:41:33.288Z,13.33
2017-10-17T01:44:07.105Z,17.30
2017-10-17T01:46:37.145Z,16.50
2017-10-17T01:49:07.383Z,18.37
2017-10-17T01:51:48.328Z,12.30
2017-10-17T01:54:14.623Z,13.07
2017-10-17T01:56:41.657Z,15.73
2017-10-17T01:59:15.414Z,14.07
2017-10-17T02:01:41.713Z,12.90
2017-10-17T02:04:08.745Z,23.37
2017-10-17T02:06:35.906Z,17.43
2017-10-17T02:09:02.920Z,14.43
2017-10-17T02:11:29.211Z,13.10
2017-10-17T02:13:55.775Z,15.50
2017-10-17T02:16:22.029Z,14.03
2017-10-17T02:18:53.152Z,13.87
2017-10-17T02:21:27.358Z,18.13
2017-10-17T02:23:53.617Z,12.80
2017-10-17T02:26:20.888Z,13.47
2017-10-17T02:29:12.793Z,14.63
2017-10-17T02:31:39.061Z,14.10
2017-10-17T02:34:29.341Z,15.23
2017-10-17T02:36:56.393Z,13.97
2017-10-17T02:39:22.686Z,13.70
2017-10-17T02:41:49.199Z,14.60
2017-10-17T02:44:15.481Z,14.87
2017-10-17T02:46:42.473Z,16.67
2017-10-17T02:49:10.669Z,13.30
2017-10-17T02:51:36.927Z,13.70
2017-10-17T02:54:03.968Z,14.27
2017-10-17T02:56:31.077Z,14.07
2017-10-17T02:58:57.341Z,14.17
2017-10-17T03:01:34.221Z,12.70
2017-10-17T03:04:01.209Z,15.50
2017-10-17T03:06:27.485Z,13.33
2017-10-17T03:08:53.821Z,14.10
2017-10-17T03:11:20.813Z,14.80
2017-10-17T03:13:50.791Z,14.40
2017-10-17T03:16:17.817Z,14.53
2017-10-17T03:18:44.065Z,14.80
2017-10-17T03:21:14.090Z,15.17
2017-10-17T03:23:41.113Z,14.10
2017-10-17T03:26:07.390Z,14.23
2017-10-17T03:28:46.509Z,14.70
2017-10-17T03:31:12.777Z,15.10
2017-10-17T03:33:39.033Z,14.30
2017-10-17T03:39:05.098Z,14.87
2017-10-17T03:41:32.930Z,16.00
2017-10-17T03:47:12.234Z,14.57
2017-10-17T03:50:01.237Z,14.20
2017-10-17T03:52:35.345Z,16.00
2017-10-17T03:55:01.643Z,15.93
2017-10-17T03:57:27.922Z,16.40
2017-10-17T03:59:58.888Z,17.27
2017-10-17T04:02:25.929Z,17.23
2017-10-17T04:05:13.562Z,17.40
2017-10-17T04:07:48.421Z,17.63
2017-10-17T04:10:29.548Z,15.40
2017-10-17T04:15:51.697Z,17.33
2017-10-17T04:21:30.730Z,16.50
2017-10-17T04:24:08.927Z,16.23
2017-10-17T04:26:35.164Z,17.00
2017-10-17T04:29:34.094Z,17.73
2017-10-17T04:32:01.145Z,17.30
2017-10-17T04:37:30.391Z,18.93
2017-10-17T04:39:56.685Z,19.83
2017-10-17T04:42:54.886Z,19.67
2017-10-17T04:45:39.486Z,18.30
2017-10-17T04:48:15.535Z,19.13
2017-10-17T04:51:00.361Z,18.37
2017-10-17T04:53:42.718Z,19.10
2017-10-17T04:56:16.213Z,19.57
2017-10-17T05:08:21.430Z,20.40
2017-10-17T05:10:55.425Z,20.97
2017-10-17T05:16:57.523Z,21.77
2017-10-17T05:22:19.381Z,21.00
2017-10-17T05:24:49.368Z,20.70
2017-10-17T05:30:46.973Z,22.90
2017-10-17T05:33:39.090Z,20.97
2017-10-17T05:36:17.272Z,21.03
2017-10-17T05:38:43.548Z,21.93
2017-10-17T05:41:09.872Z,20.90
2017-10-17T05:46:53.490Z,20.87
2017-10-17T05:52:18.189Z,19.57
2017-10-17T05:54:44.411Z,20.50
2017-10-17T05:57:10.658Z,19.07
2017-10-17T05:59:36.862Z,20.53
2017-10-17T06:02:03.133Z,21.00
2017-10-17T06:04:29.366Z,19.80
2017-10-17T06:06:55.578Z,19.00
2017-10-17T06:09:21.843Z,16.70
2017-10-17T06:11:48.066Z,16.60
2017-10-17T06:14:14.302Z,17.80
2017-10-17T06:16:40.549Z,17.47
2017-10-17T06:19:07.574Z,17.80
2017-10-17T06:21:33.817Z,17.57
2017-10-17T06:24:00.809Z,17.03
2017-10-17T06:26:27.029Z,16.10
2017-10-17T06:28:53.251Z,18.40
2017-10-17T06:31:19.503Z,18.10
2017-10-17T06:33:45.725Z,19.07
2017-10-17T06:36:11.953Z,16.30
2017-10-17T06:38:38.211Z,17.87
2017-10-17T06:41:04.441Z,18.23
2017-10-17T06:43:30.684Z,18.43
2017-10-17T06:45:57.699Z,15.33
2017-10-17T06:48:23.948Z,17.00
2017-10-17T06:50:50.210Z,16.97
2017-10-17T06:53:16.783Z,14.50
2017-10-17T06:55:43.017Z,15.13
2017-10-17T06:58:09.249Z,15.30
2017-10-17T07:00:35.535Z,13.10
2017-10-17T07:03:01.786Z,13.00
2017-10-17T07:05:28.042Z,14.93
2017-10-17T07:07:54.673Z,13.53
2017-10-17T07:10:20.929Z,13.10
2017-10-17T07:12:47.919Z,13.57
2017-10-17T07:15:14.180Z,14.57
2017-10-17T07:17:40.418Z,13.37
2017-10-17T07:20:06.666Z,13.80
2017-10-17T07:22:33.993Z,13.23
2017-10-17T07:25:00.421Z,13.50
2017-10-17T07:27:26.666Z,12.80
2017-10-17T07:29:52.978Z,13.90
2017-10-17T07:32:19.254Z,14.20
2017-10-17T07:34:46.250Z,14.47
2017-10-17T07:37:12.780Z,15.70
2017-10-17T07:39:39.097Z,16.43
2017-10-17T07:42:05.364Z,16.67
2017-10-17T07:44:31.672Z,15.80
2017-10-17T07:46:57.969Z,15.97
2017-10-17T07:49:24.224Z,16.07
2017-10-17T07:51:50.797Z,15.17
2017-10-17T07:54:17.376Z,13.07
2017-10-17T07:56:43.673Z,14.70
2017-10-17T07:59:10.709Z,13.63
2017-10-17T08:01:36.976Z,15.03
2017-10-17T08:04:03.208Z,14.20
2017-10-17T08:06:29.965Z,12.93
2017-10-17T08:08:56.299Z,14.30
2017-10-17T08:11:47.320Z,11.80
2017-10-17T08:14:13.639Z,13.00
2017-10-17T08:16:39.927Z,11.83
2017-10-17T08:19:06.957Z,12.77
2017-10-17T08:21:33.957Z,10.70
2017-10-17T08:24:00.203Z,12.00
2017-10-17T08:26:27.628Z,11.27
2017-10-17T08:28:55.162Z,11.40
2017-10-17T08:31:22.184Z,10.27
2017-10-17T08:36:21.145Z,9.00
2017-10-17T08:38:48.220Z,9.03
2017-10-17T08:41:14.489Z,7.73
2017-10-17T08:43:41.478Z,9.23
2017-10-17T08:46:07.750Z,11.23
2017-10-17T08:48:34.813Z,10.17
2017-10-17T08:51:01.837Z,11.20
2017-10-17T08:53:28.587Z,9.43
2017-10-17T08:55:55.614Z,11.17
2017-10-17T08:58:21.862Z,8.00
2017-10-17T09:00:49.263Z,9.50
2017-10-17T09:03:15.833Z,9.53
2017-10-17T09:05:42.150Z,10.37
2017-10-17T09:08:08.773Z,10.83
2017-10-17T09:10:35.430Z,8.00
2017-10-17T09:13:01.705Z,11.50
2017-10-17T09:15:28.738Z,9.87
2017-10-17T09:17:56.063Z,10.30
2017-10-17T09:20:22.329Z,7.30
2017-10-17T09:22:49.320Z,8.07
2017-10-17T09:25:15.616Z,9.00
2017-10-17T09:27:41.858Z,10.03
2017-10-17T09:30:08.103Z,6.33
2017-10-17T09:32:34.681Z,5.80
2017-10-17T09:35:01.020Z,8.50
2017-10-17T09:37:28.531Z,7.93
2017-10-17T09:39:55.199Z,8.23
2017-10-17T09:42:21.440Z,8.73
2017-10-17T09:44:48.444Z,6.67
2017-10-17T09:47:15.526Z,6.80
2017-10-17T09:49:41.782Z,7.93
2017-10-17T09:52:08.748Z,7.50
2017-10-17T09:54:35.081Z,6.07
2017-10-17T09:57:01.328Z,7.80
2017-10-17T09:59:27.564Z,7.73
2017-10-17T10:01:53.853Z,6.03
2017-10-17T10:04:20.165Z,9.13
2017-10-17T10:06:47.199Z,8.47
2017-10-17T10:09:14.204Z,6.90
2017-10-17T10:11:40.576Z,6.60
2017-10-17T10:14:07.612Z,8.10
2017-10-17T10:16:34.038Z,5.53
2017-10-17T10:19:00.314Z,6.47
2017-10-17T10:21:26.615Z,7.20
2017-10-17T10:23:53.665Z,8.80
2017-10-17T10:26:20.668Z,8.50
2017-10-17T10:28:46.950Z,7.70
2017-10-17T10:31:14.059Z,8.60
2017-10-17T10:33:40.349Z,5.67
2017-10-17T10:36:06.681Z,6.30
2017-10-17T10:38:33.531Z,7.10
2017-10-17T10:40:59.809Z,12.03
2017-10-17T10:43:26.120Z,9.00
2017-10-17T10:45:52.446Z,6.97
2017-10-17T10:48:18.709Z,6.20
2017-10-17T10:50:45.692Z,5.60
2017-10-17T10:53:11.938Z,6.60
2017-10-17T10:55:38.185Z,5.97
2017-10-17T10:58:04.453Z,5.77
2017-10-17T11:00:31.482Z,7.47
2017-10-17T11:02:58.473Z,3.93
2017-10-17T11:05:24.702Z,5.87
2017-10-17T11:07:51.085Z,8.30
2017-10-17T11:10:18.085Z,11.33
2017-10-17T11:12:44.430Z,15.90
2017-10-17T11:15:11.686Z,5.50
2017-10-17T11:17:37.941Z,7.13
2017-10-17T11:20:04.190Z,6.00
2017-10-17T11:22:31.187Z,7.10
2017-10-17T11:24:57.471Z,4.87
2017-10-17T11:27:24.525Z,6.50
2017-10-17T11:29:50.810Z,6.13
2017-10-17T11:32:17.053Z,4.30
2017-10-17T11:34:44.070Z,5.70
2017-10-17T11:37:10.321Z,4.40
2017-10-17T11:39:36.587Z,6.17
2017-10-17T11:42:21.289Z,5.50
2017-10-17T11:44:47.577Z,4.67
2017-10-17T11:47:13.855Z,8.57
2017-10-17T11:49:40.134Z,4.83
2017-10-17T11:52:06.424Z,15.90
2017-10-17T11:54:32.690Z,4.20
2017-10-17T11:56:58.997Z,5.30
2017-10-17T11:59:29.506Z,5.10
2017-10-17T12:01:55.797Z,19.43
2017-10-17T12:04:22.093Z,5.60
2017-10-17T12:06:49.158Z,7.13
2017-10-17T12:09:15.432Z,7.30
2017-10-17T12:11:41.714Z,6.20
2017-10-17T12:14:08.042Z,6.50
2017-10-17T12:16:34.307Z,6.60
2017-10-17T12:19:00.578Z,6.57
2017-10-17T12:21:27.899Z,4.43
2017-10-17T12:23:54.169Z,11.37
2017-10-17T12:26:21.178Z,11.83
2017-10-17T12:28:47.477Z,5.97
2017-10-17T12:31:13.730Z,4.70
2017-10-17T12:33:40.763Z,11.53
2017-10-17T12:36:07.310Z,7.73
2017-10-17T12:38:33.869Z,5.10
2017-10-17T12:41:00.103Z,4.73
2017-10-17T12:43:26.369Z,5.50
2017-10-17T12:45:52.602Z,4.37
2017-10-17T12:48:18.884Z,5.50
2017-10-17T12:50:45.409Z,5.57
2017-10-17T12:53:11.663Z,4.97
2017-10-17T12:55:38.679Z,6.27
2017-10-17T12:58:04.942Z,5.60
2017-10-17T13:00:31.967Z,15.70
2017-10-17T13:02:58.213Z,3.90
2017-10-17T13:05:25.209Z,5.20
2017-10-17T13:07:51.467Z,6.17
2017-10-17T13:10:17.747Z,14.97
2017-10-17T13:12:43.973Z,5.03
2017-10-17T13:15:10.249Z,43.33
2017-10-17T13:17:36.770Z,31.40
2017-10-17T13:20:03.048Z,6.93
2017-10-17T13:22:30.052Z,7.93
2017-10-17T13:24:56.438Z,19.67
2017-10-17T13:27:22.708Z,18.37
2017-10-17T13:29:48.960Z,5.63
2017-10-17T13:32:16.582Z,4.20
2017-10-17T13:34:42.850Z,7.43
2017-10-17T13:37:09.125Z,10.50
2017-10-17T13:39:35.404Z,6.73
2017-10-17T13:42:01.687Z,7.07
2017-10-17T13:44:27.913Z,7.63
2017-10-17T13:46:54.178Z,6.10
2017-10-17T13:49:20.811Z,3.43
2017-10-17T13:51:47.058Z,6.30
2017-10-17T13:54:15.306Z,5.00
2017-10-17T13:56:41.813Z,4.20
2017-10-17T13:59:08.084Z,5.50
2017-10-17T14:01:34.370Z,4.13
2017-10-17T14:04:00.679Z,5.13
2017-10-17T14:06:27.729Z,5.07
2017-10-17T14:08:54.777Z,5.10
2017-10-17T14:11:22.039Z,4.40
2017-10-17T14:13:48.326Z,5.07
2017-10-17T14:16:14.641Z,4.23
2017-10-17T14:18:41.003Z,7.23
2017-10-17T14:21:08.044Z,4.07
2017-10-17T14:23:34.321Z,6.30
2017-10-17T14:26:00.953Z,12.70
2017-10-17T14:28:27.277Z,11.57
2017-10-17T14:30:53.621Z,24.20
2017-10-17T14:33:19.934Z,8.40
2017-10-17T14:35:46.204Z,7.27
2017-10-17T14:38:12.803Z,5.50
2017-10-17T14:40:39.344Z,4.60
2017-10-17T14:43:05.644Z,3.77
2017-10-17T14:45:32.647Z,4.83
2017-10-17T14:47:59.009Z,12.03
2017-10-17T14:50:25.293Z,6.87
2017-10-17T14:52:51.570Z,4.60
2017-10-17T14:55:17.870Z,5.70
2017-10-17T14:57:44.127Z,4.83
2017-10-17T15:00:10.396Z,4.93
2017-10-17T15:02:36.673Z,4.67
2017-10-17T15:05:02.962Z,5.60
2017-10-17T15:07:29.279Z,6.70
2017-10-17T15:09:55.562Z,5.23
2017-10-17T15:12:21.845Z,5.10
2017-10-17T15:14:48.368Z,4.30
2017-10-17T15:17:14.637Z,5.30
2017-10-17T15:19:40.903Z,4.60
2017-10-17T15:22:07.993Z,4.17
2017-10-17T15:24:34.279Z,5.67
2017-10-17T15:27:00.550Z,5.60
2017-10-17T15:29:26.834Z,5.30
2017-10-17T15:31:53.099Z,4.30
2017-10-17T15:34:19.408Z,6.10
2017-10-17T15:36:46.446Z,4.90
2017-10-17T15:39:13.534Z,5.60
2017-10-17T15:41:39.838Z,5.00
2017-10-17T15:44:06.156Z,4.07
2017-10-17T15:46:33.191Z,3.87
2017-10-17T15:48:59.468Z,5.73
2017-10-17T15:51:25.791Z,5.23
2017-10-17T15:53:52.023Z,5.83
2017-10-17T15:56:18.327Z,4.07
2017-10-17T15:58:45.379Z,4.90
2017-10-17T16:01:12.405Z,4.70
2017-10-17T16:03:38.654Z,5.77
2017-10-17T16:06:05.800Z,5.07
2017-10-17T16:08:32.840Z,6.37
2017-10-17T16:10:59.862Z,5.37
2017-10-17T16:13:26.195Z,4.53
2017-10-17T16:15:52.487Z,5.73
2017-10-17T16:18:18.759Z,5.77
2017-10-17T16:20:45.060Z,8.93
2017-10-17T16:23:11.316Z,5.00
2017-10-17T16:25:37.602Z,5.03
2017-10-17T16:28:03.960Z,4.43
2017-10-17T16:30:30.255Z,4.70
2017-10-17T16:32:56.484Z,5.10
2017-10-17T16:35:22.799Z,4.77
2017-10-17T16:37:49.440Z,4.90
2017-10-17T16:40:15.725Z,6.37
2017-10-17T16:42:42.006Z,5.20
2017-10-17T16:45:08.374Z,4.90
2017-10-17T16:47:34.677Z,4.90
2017-10-17T16:50:01.008Z,5.90
2017-10-17T16:52:27.361Z,5.30
2017-10-17T16:54:53.616Z,5.10
2017-10-17T16:57:19.895Z,5.53
2017-10-17T16:59:46.209Z,6.53
2017-10-17T17:02:12.507Z,5.00
2017-10-17T17:04:39.541Z,5.00
2017-10-17T17:07:06.121Z,6.40
2017-10-17T17:09:32.459Z,4.53
2017-10-17T17:11:58.744Z,6.13
2017-10-17T17:14:25.256Z,4.50
2017-10-17T17:16:51.541Z,4.30
2017-10-17T17:19:17.819Z,5.80
2017-10-17T17:21:44.521Z,5.23
2017-10-17T17:24:10.797Z,5.47
2017-10-17T17:26:37.057Z,4.90
2017-10-17T17:29:04.108Z,3.87
2017-10-17T17:31:31.153Z,4.33
2017-10-17T17:33:58.190Z,6.07
2017-10-17T17:36:25.572Z,5.33
2017-10-17T17:38:51.822Z,5.00
2017-10-17T17:41:18.073Z,4.40
2017-10-17T17:43:44.372Z,5.70
2017-10-17T17:46:10.673Z,5.70
2017-10-17T17:48:37.762Z,5.33
2017-10-17T17:51:04.051Z,4.43
2017-10-17T17:53:31.074Z,7.17
2017-10-17T17:55:58.121Z,4.27
2017-10-17T17:58:25.154Z,5.40
2017-10-17T18:00:51.502Z,5.17
2017-10-17T18:03:18.565Z,6.60
2017-10-17T18:05:45.545Z,4.40
2017-10-17T18:08:11.861Z,4.90
2017-10-17T18:10:38.147Z,5.30
2017-10-17T18:13:04.442Z,5.07
2017-10-17T18:15:30.761Z,5.00
2017-10-17T18:17:57.040Z,5.53
2017-10-17T18:20:24.157Z,5.63
2017-10-17T18:22:50.563Z,5.97
2017-10-17T18:25:16.870Z,5.40
2017-10-17T18:27:43.919Z,5.80
2017-10-17T18:30:11.079Z,5.60
2017-10-17T18:32:37.377Z,4.60
2017-10-17T18:35:03.669Z,5.70
2017-10-17T18:37:30.025Z,5.97
2017-10-17T18:39:56.333Z,4.50
2017-10-17T18:42:22.735Z,9.90
2017-10-17T18:44:49.143Z,6.30
2017-10-17T18:47:16.247Z,4.70
2017-10-17T18:49:42.578Z,5.83
2017-10-17T18:52:09.238Z,7.30
2017-10-17T18:54:35.641Z,5.50
2017-10-17T18:57:01.989Z,6.60
2017-10-17T18:59:28.382Z,4.77
2017-10-17T19:01:54.777Z,6.30
2017-10-17T19:04:21.811Z,6.80
2017-10-17T19:06:48.425Z,6.20
2017-10-17T19:09:14.714Z,6.57
2017-10-17T19:11:41.126Z,9.93
2017-10-17T19:14:08.265Z,7.47
2017-10-17T19:16:35.380Z,7.33
2017-10-17T19:19:01.753Z,7.10
2017-10-17T19:21:29.273Z,5.93
2017-10-17T19:23:55.588Z,5.30
2017-10-17T19:26:21.945Z,7.47
2017-10-17T19:28:48.696Z,7.03
2017-10-17T19:31:15.096Z,7.80
2017-10-17T19:33:41.470Z,5.90
2017-10-17T19:36:10.292Z,6.37
2017-10-17T19:38:36.683Z,5.30
2017-10-17T19:41:02.976Z,7.20
2017-10-17T19:43:29.325Z,6.53
2017-10-17T19:45:55.592Z,6.50
2017-10-17T19:48:22.674Z,5.93
2017-10-17T19:50:48.972Z,6.30
2017-10-17T19:53:15.984Z,7.67
2017-10-17T19:55:42.321Z,5.60
2017-10-17T19:58:08.622Z,7.90
2017-10-17T20:00:34.957Z,6.23
2017-10-17T20:03:01.249Z,6.50
2017-10-17T20:05:27.548Z,6.67
2017-10-17T20:07:53.882Z,7.20
2017-10-17T20:10:20.184Z,7.90
2017-10-17T20:12:46.506Z,8.77
2017-10-17T20:15:13.104Z,8.27
2017-10-17T20:17:40.161Z,6.80
2017-10-17T20:20:06.498Z,6.57
2017-10-17T20:22:32.892Z,6.33
2017-10-17T20:24:59.997Z,7.90
2017-10-17T20:27:26.305Z,7.33
2017-10-17T20:29:52.636Z,7.50
2017-10-17T20:32:19.160Z,7.40
2017-10-17T20:34:45.456Z,8.00
2017-10-17T20:37:11.762Z,7.80
2017-10-17T20:39:38.172Z,7.47
2017-10-17T20:42:04.459Z,8.67
2017-10-17T20:44:31.854Z,7.10
2017-10-17T20:46:58.208Z,5.90
2017-10-17T20:49:24.536Z,8.23
2017-10-17T20:51:50.869Z,11.30
2017-10-17T20:54:17.200Z,7.57
2017-10-17T20:56:43.504Z,8.30
2017-10-17T20:59:09.797Z,6.87
2017-10-17T21:01:36.841Z,8.07
2017-10-17T21:04:03.905Z,8.23
2017-10-17T21:06:30.945Z,7.77
2017-10-17T21:08:58.176Z,9.00
2017-10-17T21:11:24.484Z,8.70
2017-10-17T21:13:50.792Z,8.63
2017-10-17T21:16:17.517Z,9.30
2017-10-17T21:18:43.829Z,10.63
2017-10-17T21:21:10.897Z,10.33
2017-10-17T21:23:37.254Z,11.33
2017-10-17T21:26:03.540Z,10.83
2017-10-17T21:28:29.879Z,9.13
2017-10-17T21:30:56.288Z,9.13
2017-10-17T21:33:23.324Z,8.80
2017-10-17T21:35:50.346Z,27.27
2017-10-17T21:38:16.620Z,10.40
2017-10-17T21:40:43.653Z,9.97
2017-10-17T21:43:09.932Z,9.20
2017-10-17T21:45:36.444Z,12.13
2017-10-17T21:48:02.764Z,12.80
2017-10-17T21:50:30.745Z,11.00
2017-10-17T21:52:57.052Z,10.23
2017-10-17T21:55:24.088Z,11.33
2017-10-17T21:57:50.358Z,10.37
2017-10-17T22:00:16.744Z,10.30
2017-10-17T22:02:43.058Z,9.23
2017-10-17T22:05:09.608Z,11.03
2017-10-17T22:07:35.909Z,10.90
2017-10-17T22:10:02.196Z,10.57
2017-10-17T22:12:28.750Z,10.23
2017-10-17T22:14:55.011Z,10.90
2017-10-17T22:17:21.318Z,13.30
2017-10-17T22:19:47.660Z,10.83
2017-10-17T22:22:13.917Z,11.60
2017-10-17T22:24:40.198Z,10.10
2017-10-17T22:27:06.509Z,10.73
2017-10-17T22:29:32.797Z,10.20
2017-10-17T22:31:59.069Z,10.57
2017-10-17T22:34:26.431Z,9.40
2017-10-17T22:36:52.728Z,10.43
2017-10-17T22:39:18.997Z,9.90
2017-10-17T22:41:45.304Z,9.83
2017-10-17T22:44:12.348Z,9.67
2017-10-17T22:46:39.426Z,11.10
2017-10-17T22:49:05.763Z,10.57
2017-10-17T22:51:32.044Z,9.37
2017-10-17T22:53:58.311Z,10.50
2017-10-17T22:56:24.614Z,11.27
2017-10-17T22:58:51.897Z,10.30
2017-10-17T23:01:18.167Z,11.70
2017-10-17T23:03:44.468Z,11.23
2017-10-17T23:06:10.809Z,10.67
2017-10-17T23:08:37.120Z,11.87
2017-10-17T23:11:03.419Z,10.00
2017-10-17T23:13:30.438Z,16.33
2017-10-17T23:15:56.723Z,10.37
2017-10-17T23:18:41.617Z,9.87
2017-10-17T23:21:07.909Z,10.10
2017-10-17T23:23:34.192Z,11.40
2017-10-17T23:26:00.773Z,10.60
2017-10-17T23:28:27.048Z,12.17
2017-10-17T23:30:53.318Z,9.47
2017-10-17T23:33:19.607Z,10.83
2017-10-17T23:35:45.881Z,11.07
2017-10-17T23:38:12.421Z,13.03
2017-10-17T23:40:38.691Z,10.70
2017-10-17T23:43:05.720Z,9.90
2017-10-17T23:45:32.049Z,10.67
2017-10-17T23:47:58.339Z,10.40
2017-10-17T23:50:25.377Z,10.10
2017-10-17T23:52:52.432Z,11.23
2017-10-17T23:55:19.455Z,11.90
2017-10-17T23:57:45.736Z,11.10
